createdAt,value
2023-03-13T00:00:56.545Z,9.55
2023-03-13T00:01:59.341Z,9.90
2023-03-13T00:03:01.962Z,9.43
2023-03-13T00:04:04.699Z,9.93
2023-03-13T00:05:07.365Z,10.45
2023-03-13T00:06:10.189Z,9.93
2023-03-13T00:07:13.934Z,10.02
2023-03-13T00:08:16.497Z,10.23
2023-03-13T00:09:19.121Z,11.75
2023-03-13T00:10:21.864Z,10.55
2023-03-13T00:11:24.783Z,10.70
2023-03-13T00:12:27.275Z,10.70
2023-03-13T00:13:29.683Z,9.15
2023-03-13T00:14:32.104Z,9.57
2023-03-13T00:15:34.868Z,9.10
2023-03-13T00:16:40.373Z,9.52
2023-03-13T00:17:42.931Z,9.95
2023-03-13T00:18:47.335Z,9.43
2023-03-13T00:19:50.750Z,10.10
2023-03-13T00:21:01.993Z,10.05
2023-03-13T00:22:04.430Z,9.75
2023-03-13T00:23:06.904Z,9.50
2023-03-13T00:24:11.706Z,9.18
2023-03-13T00:25:14.201Z,8.80
2023-03-13T00:26:19.205Z,9.25
2023-03-13T00:27:21.746Z,9.65
2023-03-13T00:28:25.327Z,9.02
2023-03-13T00:29:27.714Z,9.00
2023-03-13T00:30:30.211Z,8.43
2023-03-13T00:31:33.153Z,8.70
2023-03-13T00:32:41.911Z,8.00
2023-03-13T00:33:46.932Z,8.88
2023-03-13T00:34:49.447Z,9.30
2023-03-13T00:35:52.064Z,7.38
2023-03-13T00:36:55.572Z,7.00
2023-03-13T00:37:58.738Z,7.30
2023-03-13T00:39:01.251Z,8.23
2023-03-13T00:40:05.702Z,8.05
2023-03-13T00:41:13.228Z,8.48
2023-03-13T00:42:15.729Z,7.72
2023-03-13T00:43:18.091Z,8.02
2023-03-13T00:44:20.554Z,7.63
2023-03-13T00:45:23.502Z,6.18
2023-03-13T00:46:27.959Z,6.50
2023-03-13T00:47:30.432Z,7.32
2023-03-13T00:48:33.354Z,6.57
2023-03-13T00:49:35.824Z,7.65
2023-03-13T00:50:38.269Z,6.43
2023-03-13T00:51:40.779Z,6.88
2023-03-13T00:52:43.423Z,7.10
2023-03-13T00:53:46.786Z,6.53
2023-03-13T00:54:49.394Z,6.75
2023-03-13T00:56:06.569Z,6.80
2023-03-13T00:57:09.406Z,7.47
2023-03-13T00:58:11.788Z,6.38
2023-03-13T00:59:14.977Z,6.15
2023-03-13T01:00:18.108Z,6.60
2023-03-13T01:01:23.315Z,7.00
2023-03-13T01:02:26.105Z,6.70
2023-03-13T01:03:28.659Z,6.25
2023-03-13T01:04:31.181Z,6.18
2023-03-13T01:05:34.031Z,6.07
2023-03-13T01:06:38.690Z,6.70
2023-03-13T01:07:41.135Z,6.40
2023-03-13T01:08:44.087Z,5.90
2023-03-13T01:09:46.656Z,5.93
2023-03-13T01:10:49.110Z,6.53
2023-03-13T01:11:51.716Z,6.50
2023-03-13T01:12:54.180Z,5.55
2023-03-13T01:13:58.309Z,6.82
2023-03-13T01:15:01.934Z,6.38
2023-03-13T01:16:25.929Z,5.85
2023-03-13T01:17:28.655Z,6.15
2023-03-13T01:18:31.542Z,6.78
2023-03-13T01:19:34.343Z,6.65
2023-03-13T01:20:36.872Z,6.38
2023-03-13T01:21:39.974Z,6.40
2023-03-13T01:22:42.541Z,6.65
2023-03-13T01:23:45.088Z,7.68
2023-03-13T01:24:50.166Z,6.68
2023-03-13T01:25:52.706Z,6.30
2023-03-13T01:26:55.201Z,6.40
2023-03-13T01:27:59.261Z,6.85
2023-03-13T01:29:04.225Z,6.15
2023-03-13T01:30:07.415Z,6.35
2023-03-13T01:31:19.240Z,6.10
2023-03-13T01:32:22.161Z,5.65
2023-03-13T01:33:24.827Z,6.32
2023-03-13T01:34:27.341Z,6.80
2023-03-13T01:35:29.886Z,6.32
2023-03-13T01:36:33.007Z,6.22
2023-03-13T01:37:35.517Z,5.13
2023-03-13T01:38:39.236Z,6.15
2023-03-13T01:39:41.949Z,6.45
2023-03-13T01:40:49.022Z,7.13
2023-03-13T01:41:51.602Z,5.88
2023-03-13T01:43:01.005Z,5.72
2023-03-13T01:44:04.160Z,6.18
2023-03-13T01:45:49.591Z,6.28
2023-03-13T01:46:52.511Z,5.68
2023-03-13T01:48:01.016Z,6.03
2023-03-13T01:49:21.714Z,5.57
2023-03-13T01:50:37.296Z,6.03
2023-03-13T01:51:58.362Z,5.63
2023-03-13T01:53:01.292Z,5.57
2023-03-13T01:54:13.041Z,5.05
2023-03-13T01:55:17.436Z,6.05
2023-03-13T01:56:28.644Z,5.75
2023-03-13T01:57:37.261Z,4.60
2023-03-13T01:58:40.188Z,5.65
2023-03-13T01:59:51.455Z,4.78
2023-03-13T02:00:54.330Z,5.78
2023-03-13T02:02:00.789Z,5.22
2023-03-13T02:03:09.520Z,5.38
2023-03-13T02:04:13.933Z,5.57
2023-03-13T02:05:17.691Z,6.43
2023-03-13T02:06:22.941Z,5.25
2023-03-13T02:07:38.783Z,7.25
2023-03-13T02:08:50.991Z,5.70
2023-03-13T02:09:54.956Z,5.60
2023-03-13T02:11:25.833Z,6.28
2023-03-13T02:12:36.475Z,5.13
2023-03-13T02:13:38.956Z,5.07
2023-03-13T02:14:43.786Z,6.07
2023-03-13T02:15:47.618Z,5.68
2023-03-13T02:16:52.771Z,5.25
2023-03-13T02:17:55.609Z,6.20
2023-03-13T02:18:58.432Z,5.10
2023-03-13T02:20:01.085Z,5.30
2023-03-13T02:21:15.021Z,6.72
2023-03-13T02:22:27.469Z,5.20
2023-03-13T02:23:40.081Z,4.88
2023-03-13T02:25:00.734Z,6.18
2023-03-13T02:26:03.849Z,5.25
2023-03-13T02:27:09.236Z,5.53
2023-03-13T02:28:17.790Z,5.18
2023-03-13T02:29:21.076Z,4.82
2023-03-13T02:30:24.353Z,4.40
2023-03-13T02:31:27.381Z,5.25
2023-03-13T02:32:30.852Z,5.05
2023-03-13T02:33:37.402Z,5.28
2023-03-13T02:34:40.769Z,5.88
2023-03-13T02:35:45.521Z,6.05
2023-03-13T02:36:50.234Z,5.22
2023-03-13T02:37:57.618Z,5.47
2023-03-13T02:39:03.383Z,5.43
2023-03-13T02:40:10.766Z,5.07
2023-03-13T02:41:14.405Z,5.72
2023-03-13T02:42:19.199Z,6.05
2023-03-13T02:43:36.476Z,5.25
2023-03-13T02:44:40.797Z,4.90
2023-03-13T02:46:04.944Z,4.53
2023-03-13T02:47:09.952Z,4.93
2023-03-13T02:48:12.584Z,5.72
2023-03-13T02:49:27.488Z,5.85
2023-03-13T02:50:31.111Z,5.35
2023-03-13T02:51:38.702Z,4.95
2023-03-13T02:52:44.889Z,5.88
2023-03-13T02:53:49.953Z,5.40
2023-03-13T02:54:56.455Z,5.28
2023-03-13T02:55:59.055Z,5.70
2023-03-13T02:57:04.278Z,5.72
2023-03-13T02:58:07.391Z,5.95
2023-03-13T02:59:12.362Z,5.72
2023-03-13T03:00:19.642Z,5.22
2023-03-13T03:01:22.291Z,5.25
2023-03-13T03:02:25.140Z,5.80
2023-03-13T03:03:29.013Z,6.00
2023-03-13T03:04:31.740Z,5.65
2023-03-13T03:05:34.281Z,5.90
2023-03-13T03:06:37.231Z,5.50
2023-03-13T03:07:40.663Z,5.43
2023-03-13T03:08:44.249Z,6.15
2023-03-13T03:09:48.284Z,6.63
2023-03-13T03:10:54.549Z,6.35
2023-03-13T03:11:58.096Z,5.60
2023-03-13T03:13:03.660Z,6.38
2023-03-13T03:14:06.340Z,6.28
2023-03-13T03:15:13.641Z,5.57
2023-03-13T03:16:20.758Z,5.00
2023-03-13T03:17:23.419Z,5.97
2023-03-13T03:18:26.024Z,6.55
2023-03-13T03:19:29.029Z,6.28
2023-03-13T03:20:31.729Z,6.22
2023-03-13T03:21:35.257Z,5.82
2023-03-13T03:22:40.695Z,6.47
2023-03-13T03:23:43.311Z,6.50
2023-03-13T03:24:46.063Z,7.13
2023-03-13T03:25:48.739Z,6.50
2023-03-13T03:26:51.359Z,6.25
2023-03-13T03:28:04.467Z,5.93
2023-03-13T03:29:08.405Z,5.97
2023-03-13T03:30:11.724Z,5.43
2023-03-13T03:31:16.197Z,6.35
2023-03-13T03:32:18.893Z,6.78
2023-03-13T03:33:22.733Z,6.10
2023-03-13T03:34:25.312Z,6.03
2023-03-13T03:35:28.439Z,6.60
2023-03-13T03:36:31.121Z,5.45
2023-03-13T03:37:36.041Z,6.15
2023-03-13T03:38:40.624Z,6.35
2023-03-13T03:39:44.605Z,5.72
2023-03-13T03:40:47.098Z,6.57
2023-03-13T03:41:49.847Z,6.93
2023-03-13T03:42:52.468Z,6.43
2023-03-13T03:43:55.071Z,6.13
2023-03-13T03:45:00.857Z,6.07
2023-03-13T03:46:03.669Z,6.47
2023-03-13T03:47:06.385Z,6.45
2023-03-13T03:48:13.441Z,6.88
2023-03-13T03:49:16.073Z,6.85
2023-03-13T03:50:18.733Z,5.65
2023-03-13T03:51:30.012Z,6.13
2023-03-13T03:52:32.674Z,6.25
2023-03-13T03:53:35.381Z,6.50
2023-03-13T03:54:37.874Z,5.85
2023-03-13T03:55:40.367Z,6.43
2023-03-13T03:56:42.986Z,6.15
2023-03-13T03:57:46.653Z,6.68
2023-03-13T03:58:55.871Z,6.68
2023-03-13T04:00:14.204Z,6.53
2023-03-13T04:01:21.523Z,6.57
2023-03-13T04:02:23.982Z,6.80
2023-03-13T04:03:27.380Z,7.13
2023-03-13T04:04:30.143Z,7.00
2023-03-13T04:05:43.258Z,6.95
2023-03-13T04:06:46.203Z,6.72
2023-03-13T04:07:49.118Z,7.53
2023-03-13T04:08:51.683Z,7.50
2023-03-13T04:09:57.332Z,6.70
2023-03-13T04:11:10.408Z,7.00
2023-03-13T04:12:16.131Z,8.27
2023-03-13T04:13:21.414Z,7.25
2023-03-13T04:14:24.398Z,7.30
2023-03-13T04:15:27.396Z,8.38
2023-03-13T04:16:30.004Z,7.18
2023-03-13T04:17:32.750Z,7.25
2023-03-13T04:18:35.822Z,7.20
2023-03-13T04:19:39.065Z,6.93
2023-03-13T04:20:42.222Z,7.10
2023-03-13T04:21:47.999Z,6.63
2023-03-13T04:22:53.557Z,6.88
2023-03-13T04:23:56.082Z,6.80
2023-03-13T04:25:00.437Z,6.22
2023-03-13T04:26:05.503Z,7.07
2023-03-13T04:27:08.236Z,7.43
2023-03-13T04:28:11.102Z,6.60
2023-03-13T04:29:18.322Z,6.97
2023-03-13T04:30:49.823Z,6.53
2023-03-13T04:32:12.486Z,6.70
2023-03-13T04:33:33.330Z,7.43
2023-03-13T04:34:45.946Z,6.70
2023-03-13T04:35:51.164Z,6.72
2023-03-13T04:37:25.630Z,6.88
2023-03-13T04:38:52.777Z,6.97
2023-03-13T04:40:18.616Z,6.63
2023-03-13T04:41:44.115Z,7.30
2023-03-13T04:43:05.139Z,6.53
2023-03-13T04:44:32.334Z,7.38
2023-03-13T04:45:56.177Z,7.10
2023-03-13T04:47:23.059Z,7.03
2023-03-13T04:48:41.170Z,8.52
2023-03-13T04:50:03.683Z,6.88
2023-03-13T04:51:18.922Z,7.35
2023-03-13T04:52:26.795Z,7.28
2023-03-13T04:53:56.777Z,7.13
2023-03-13T04:55:28.044Z,7.80
2023-03-13T04:56:50.716Z,7.05
2023-03-13T04:58:10.784Z,7.70
2023-03-13T04:59:21.104Z,6.47
2023-03-13T05:00:41.969Z,8.40
2023-03-13T05:02:07.547Z,8.05
2023-03-13T05:03:27.842Z,8.75
2023-03-13T05:04:48.049Z,8.95
2023-03-13T05:06:16.880Z,9.13
2023-03-13T05:07:19.571Z,10.05
2023-03-13T05:08:47.830Z,11.45
2023-03-13T05:09:59.226Z,11.23
2023-03-13T05:11:20.190Z,9.82
2023-03-13T05:12:48.779Z,10.48
2023-03-13T05:14:09.130Z,9.10
2023-03-13T05:15:11.827Z,8.88
2023-03-13T05:16:33.026Z,8.85
2023-03-13T05:17:55.828Z,9.05
2023-03-13T05:19:07.295Z,9.15
2023-03-13T05:20:36.770Z,8.20
2023-03-13T05:21:49.190Z,8.38
2023-03-13T05:24:34.412Z,8.98
2023-03-13T05:25:55.576Z,8.65
2023-03-13T05:28:28.466Z,8.77
2023-03-13T05:29:45.397Z,8.52
2023-03-13T05:30:57.214Z,7.85
2023-03-13T05:32:34.838Z,8.43
2023-03-13T05:33:53.621Z,9.02
2023-03-13T05:35:18.969Z,8.25
2023-03-13T05:36:44.489Z,8.35
2023-03-13T05:37:50.099Z,8.82
2023-03-13T05:39:18.838Z,7.80
2023-03-13T05:40:43.987Z,7.82
2023-03-13T05:43:18.741Z,6.93
2023-03-13T05:44:39.387Z,8.60
2023-03-13T05:46:11.159Z,8.60
2023-03-13T05:47:23.317Z,8.25
2023-03-13T05:48:45.746Z,7.65
2023-03-13T05:50:07.777Z,8.80
2023-03-13T05:51:24.048Z,8.75
2023-03-13T05:52:49.425Z,7.68
2023-03-13T05:54:03.422Z,8.27
2023-03-13T05:55:18.689Z,8.02
2023-03-13T05:56:52.329Z,8.88
2023-03-13T05:58:10.290Z,9.23
2023-03-13T05:59:35.918Z,9.73
2023-03-13T06:01:12.305Z,9.93
2023-03-13T06:02:29.769Z,10.90
2023-03-13T06:03:33.290Z,10.60
2023-03-13T06:04:36.048Z,11.48
2023-03-13T06:05:38.599Z,10.05
2023-03-13T06:06:48.940Z,9.65
2023-03-13T06:07:52.873Z,8.88
2023-03-13T06:08:55.678Z,8.57
2023-03-13T06:10:01.420Z,8.45
2023-03-13T06:11:05.754Z,9.55
2023-03-13T06:12:11.023Z,8.98
2023-03-13T06:13:19.967Z,9.85
2023-03-13T06:14:25.417Z,9.40
2023-03-13T06:16:00.461Z,8.95
2023-03-13T06:17:16.767Z,8.07
2023-03-13T06:18:19.532Z,8.63
2023-03-13T06:19:24.566Z,8.32
2023-03-13T06:20:27.122Z,8.52
2023-03-13T06:21:29.747Z,9.43
2023-03-13T06:22:32.355Z,8.45
2023-03-13T06:23:35.720Z,9.10
2023-03-13T06:24:38.325Z,8.25
2023-03-13T06:25:40.871Z,8.07
2023-03-13T06:26:43.561Z,9.25
2023-03-13T06:27:46.123Z,10.38
2023-03-13T06:28:49.345Z,9.80
2023-03-13T06:29:51.975Z,8.55
2023-03-13T06:30:55.221Z,7.88
2023-03-13T06:31:57.958Z,7.95
2023-03-13T06:33:00.833Z,8.05
2023-03-13T06:34:03.541Z,7.80
2023-03-13T06:35:06.749Z,8.10
2023-03-13T06:36:09.654Z,8.43
2023-03-13T06:37:12.613Z,7.82
2023-03-13T06:38:15.181Z,7.75
2023-03-13T06:39:20.764Z,7.43
2023-03-13T06:40:23.465Z,7.88
2023-03-13T06:41:25.981Z,7.38
2023-03-13T06:42:28.441Z,7.57
2023-03-13T06:43:31.094Z,8.00
2023-03-13T06:44:33.569Z,8.15
2023-03-13T06:45:36.852Z,8.30
2023-03-13T06:46:39.481Z,7.75
2023-03-13T06:47:42.077Z,7.80
2023-03-13T06:48:44.842Z,7.90
2023-03-13T06:49:48.913Z,8.10
2023-03-13T06:50:51.448Z,8.60
2023-03-13T06:51:53.905Z,7.82
2023-03-13T06:52:57.535Z,8.48
2023-03-13T06:54:01.472Z,7.10
2023-03-13T06:55:05.027Z,8.60
2023-03-13T06:56:08.103Z,8.45
2023-03-13T06:57:11.317Z,8.88
2023-03-13T06:58:25.223Z,8.00
2023-03-13T06:59:31.501Z,8.55
2023-03-13T07:00:34.590Z,9.25
2023-03-13T07:01:37.215Z,7.93
2023-03-13T07:02:39.811Z,7.72
2023-03-13T07:03:42.808Z,7.88
2023-03-13T07:04:46.596Z,7.78
2023-03-13T07:05:49.027Z,7.30
2023-03-13T07:06:52.318Z,8.13
2023-03-13T07:07:54.771Z,7.50
2023-03-13T07:08:57.260Z,8.77
2023-03-13T07:09:59.914Z,8.07
2023-03-13T07:11:04.533Z,7.38
2023-03-13T07:12:07.289Z,7.40
2023-03-13T07:13:09.782Z,8.10
2023-03-13T07:14:17.082Z,7.15
2023-03-13T07:15:20.119Z,8.32
2023-03-13T07:16:22.610Z,7.32
2023-03-13T07:17:25.164Z,7.47
2023-03-13T07:18:28.026Z,8.27
2023-03-13T07:19:30.488Z,7.50
2023-03-13T07:20:34.365Z,7.35
2023-03-13T07:21:37.375Z,6.90
2023-03-13T07:22:40.286Z,7.75
2023-03-13T07:23:42.830Z,7.97
2023-03-13T07:24:45.483Z,7.45
2023-03-13T07:26:02.794Z,7.75
2023-03-13T07:27:07.973Z,7.93
2023-03-13T07:28:10.815Z,6.95
2023-03-13T07:29:13.867Z,7.00
2023-03-13T07:30:16.589Z,7.72
2023-03-13T07:31:21.297Z,7.40
2023-03-13T07:32:24.025Z,7.45
2023-03-13T07:33:26.634Z,7.53
2023-03-13T07:34:29.578Z,6.80
2023-03-13T07:35:32.033Z,7.18
2023-03-13T07:36:35.553Z,7.10
2023-03-13T07:37:38.084Z,7.05
2023-03-13T07:38:40.845Z,6.80
2023-03-13T07:39:43.829Z,7.13
2023-03-13T07:40:54.470Z,7.57
2023-03-13T07:42:59.387Z,7.00
2023-03-13T07:44:01.960Z,7.57
2023-03-13T07:45:04.836Z,6.13
2023-03-13T07:46:09.458Z,7.30
2023-03-13T07:47:12.042Z,7.30
2023-03-13T07:48:16.224Z,6.97
2023-03-13T07:49:19.011Z,7.75
2023-03-13T07:50:21.785Z,7.45
2023-03-13T07:51:42.119Z,7.05
2023-03-13T07:52:45.889Z,7.05
2023-03-13T07:53:48.943Z,6.75
2023-03-13T07:54:51.406Z,6.75
2023-03-13T07:55:56.732Z,7.13
2023-03-13T07:56:59.418Z,7.57
2023-03-13T07:58:01.962Z,6.95
2023-03-13T07:59:04.542Z,6.93
2023-03-13T08:00:11.982Z,6.72
2023-03-13T08:01:25.805Z,7.85
2023-03-13T08:02:29.132Z,7.47
2023-03-13T08:03:31.685Z,7.90
2023-03-13T08:04:34.319Z,7.45
2023-03-13T08:05:36.894Z,8.07
2023-03-13T08:06:41.151Z,7.47
2023-03-13T08:07:45.237Z,7.88
2023-03-13T08:08:48.320Z,7.60
2023-03-13T08:09:50.833Z,7.60
2023-03-13T08:10:53.721Z,8.77
2023-03-13T08:11:56.334Z,9.07
2023-03-13T08:12:58.974Z,9.98
2023-03-13T08:14:01.579Z,8.52
2023-03-13T08:15:04.311Z,9.02
2023-03-13T08:16:12.279Z,8.05
2023-03-13T08:17:15.165Z,7.45
2023-03-13T08:18:17.743Z,7.82
2023-03-13T08:19:20.383Z,7.20
2023-03-13T08:20:23.152Z,6.82
2023-03-13T08:21:30.798Z,6.65
2023-03-13T08:22:33.272Z,6.82
2023-03-13T08:23:36.333Z,6.97
2023-03-13T08:24:38.933Z,6.80
2023-03-13T08:25:41.564Z,6.15
2023-03-13T08:26:44.343Z,6.85
2023-03-13T08:27:47.008Z,6.45
2023-03-13T08:28:54.239Z,6.30
2023-03-13T08:29:56.793Z,6.32
2023-03-13T08:30:59.397Z,5.70
2023-03-13T08:32:02.310Z,6.18
2023-03-13T08:33:07.566Z,6.18
2023-03-13T08:34:12.507Z,5.38
2023-03-13T08:35:15.092Z,5.30
2023-03-13T08:36:18.840Z,5.75
2023-03-13T08:37:21.485Z,6.88
2023-03-13T08:38:23.970Z,6.65
2023-03-13T08:39:26.718Z,6.63
2023-03-13T08:40:29.522Z,6.15
2023-03-13T08:41:36.218Z,6.72
2023-03-13T08:42:40.405Z,6.03
2023-03-13T08:43:43.372Z,6.55
2023-03-13T08:44:45.941Z,6.20
2023-03-13T08:45:55.457Z,6.38
2023-03-13T08:46:59.964Z,5.63
2023-03-13T08:48:02.544Z,7.40
2023-03-13T08:49:07.134Z,6.93
2023-03-13T08:50:10.116Z,5.60
2023-03-13T08:51:17.043Z,6.88
2023-03-13T08:52:19.813Z,6.75
2023-03-13T08:53:22.577Z,7.68
2023-03-13T08:54:25.088Z,6.45
2023-03-13T08:55:27.567Z,6.72
2023-03-13T08:56:31.038Z,7.03
2023-03-13T08:57:33.535Z,6.32
2023-03-13T08:58:36.297Z,5.93
2023-03-13T08:59:38.762Z,5.95
2023-03-13T09:00:41.261Z,6.45
2023-03-13T09:01:43.781Z,5.70
2023-03-13T09:02:46.353Z,7.03
2023-03-13T09:03:49.100Z,6.57
2023-03-13T09:04:51.618Z,6.60
2023-03-13T09:05:56.237Z,6.35
2023-03-13T09:06:59.204Z,6.10
2023-03-13T09:08:01.803Z,7.00
2023-03-13T09:09:05.707Z,5.60
2023-03-13T09:10:08.930Z,7.10
2023-03-13T09:11:22.130Z,5.85
2023-03-13T09:12:30.754Z,6.03
2023-03-13T09:13:36.056Z,5.85
2023-03-13T09:14:38.704Z,6.00
2023-03-13T09:15:41.265Z,7.65
2023-03-13T09:16:46.487Z,6.13
2023-03-13T09:17:48.958Z,6.05
2023-03-13T09:18:52.535Z,5.72
2023-03-13T09:20:00.638Z,5.55
2023-03-13T09:21:06.347Z,5.88
2023-03-13T09:22:09.708Z,5.65
2023-03-13T09:23:12.565Z,6.35
2023-03-13T09:24:15.807Z,5.85
2023-03-13T09:25:18.448Z,5.55
2023-03-13T09:26:23.370Z,5.38
2023-03-13T09:27:28.197Z,5.85
2023-03-13T09:28:30.865Z,5.68
2023-03-13T09:29:33.380Z,5.43
2023-03-13T09:30:36.118Z,5.68
2023-03-13T09:31:39.098Z,5.88
2023-03-13T09:32:41.667Z,5.28
2023-03-13T09:33:44.830Z,5.13
2023-03-13T09:34:47.865Z,5.00
2023-03-13T09:35:51.232Z,5.68
2023-03-13T09:36:53.817Z,5.72
2023-03-13T09:37:56.352Z,4.47
2023-03-13T09:38:59.994Z,5.93
2023-03-13T09:40:02.561Z,4.97
2023-03-13T09:41:36.705Z,5.38
2023-03-13T09:42:50.853Z,5.25
2023-03-13T09:44:13.599Z,5.10
2023-03-13T09:45:35.223Z,4.65
2023-03-13T09:46:57.325Z,5.20
2023-03-13T09:48:22.937Z,4.50
2023-03-13T09:49:47.639Z,4.38
2023-03-13T09:51:18.627Z,4.45
2023-03-13T09:54:04.537Z,5.78
2023-03-13T09:55:15.601Z,5.35
2023-03-13T09:56:24.708Z,5.50
2023-03-13T09:57:38.907Z,4.68
2023-03-13T09:58:48.235Z,5.65
2023-03-13T09:59:59.470Z,5.38
2023-03-13T10:01:04.571Z,6.03
2023-03-13T10:02:29.697Z,5.30
2023-03-13T10:03:34.780Z,5.95
2023-03-13T10:04:47.643Z,5.63
2023-03-13T10:05:58.810Z,5.35
2023-03-13T10:07:03.705Z,5.03
2023-03-13T10:08:27.130Z,4.57
2023-03-13T10:09:32.363Z,4.88
2023-03-13T10:10:48.412Z,4.93
2023-03-13T10:12:04.608Z,5.05
2023-03-13T10:13:22.811Z,4.50
2023-03-13T10:14:44.606Z,4.75
2023-03-13T10:15:58.477Z,5.50
2023-03-13T10:17:16.385Z,4.97
2023-03-13T10:18:22.412Z,4.53
2023-03-13T10:19:32.459Z,4.75
2023-03-13T10:20:35.721Z,4.75
2023-03-13T10:21:39.517Z,4.28
2023-03-13T10:22:44.516Z,4.70
2023-03-13T10:23:58.401Z,4.25
2023-03-13T10:25:07.628Z,4.57
2023-03-13T10:26:17.844Z,4.15
2023-03-13T10:27:20.706Z,4.53
2023-03-13T10:28:23.230Z,4.32
2023-03-13T10:29:28.355Z,4.47
2023-03-13T10:30:35.426Z,4.30
2023-03-13T10:31:38.191Z,4.90
2023-03-13T10:32:40.775Z,4.35
2023-03-13T10:33:43.581Z,4.88
2023-03-13T10:35:03.384Z,4.38
2023-03-13T10:36:09.459Z,4.97
2023-03-13T10:37:16.703Z,4.00
2023-03-13T10:38:22.773Z,3.60
2023-03-13T10:39:28.762Z,3.67
2023-03-13T10:40:31.297Z,4.03
2023-03-13T10:41:38.438Z,4.50
2023-03-13T10:42:45.755Z,3.85
2023-03-13T10:43:59.097Z,3.83
2023-03-13T10:45:04.092Z,3.90
2023-03-13T10:46:09.177Z,4.35
2023-03-13T10:47:14.086Z,4.57
2023-03-13T10:48:30.725Z,3.72
2023-03-13T10:49:34.173Z,4.80
2023-03-13T10:50:36.795Z,4.43
2023-03-13T10:51:40.551Z,4.18
2023-03-13T10:52:44.632Z,4.13
2023-03-13T10:53:47.163Z,4.30
2023-03-13T10:54:49.913Z,4.40
2023-03-13T10:56:01.079Z,4.22
2023-03-13T10:57:18.365Z,4.25
2023-03-13T10:58:24.441Z,4.35
2023-03-13T10:59:27.419Z,4.00
2023-03-13T11:00:41.148Z,4.43
2023-03-13T11:01:45.292Z,4.38
2023-03-13T11:02:47.954Z,4.85
2023-03-13T11:03:53.522Z,3.60
2023-03-13T11:04:57.344Z,4.60
2023-03-13T11:06:01.758Z,4.07
2023-03-13T11:07:06.965Z,4.70
2023-03-13T11:08:32.421Z,4.15
2023-03-13T11:09:35.242Z,4.53
2023-03-13T11:10:38.104Z,3.92
2023-03-13T11:11:46.761Z,4.22
2023-03-13T11:12:53.416Z,5.25
2023-03-13T11:13:56.067Z,4.57
2023-03-13T11:14:59.928Z,4.25
2023-03-13T11:16:14.564Z,4.35
2023-03-13T11:17:26.158Z,4.72
2023-03-13T11:18:40.592Z,4.30
2023-03-13T11:19:51.061Z,4.25
2023-03-13T11:20:56.595Z,3.72
2023-03-13T11:22:43.564Z,4.13
2023-03-13T11:24:01.906Z,4.07
2023-03-13T11:25:20.736Z,4.30
2023-03-13T11:26:35.873Z,4.10
2023-03-13T11:27:48.120Z,3.70
2023-03-13T11:29:15.003Z,4.10
2023-03-13T11:30:20.478Z,4.30
2023-03-13T11:31:33.581Z,4.63
2023-03-13T11:32:43.035Z,4.15
2023-03-13T11:33:59.208Z,4.60
2023-03-13T11:35:07.402Z,4.15
2023-03-13T11:36:19.622Z,4.00
2023-03-13T11:37:23.272Z,3.88
2023-03-13T11:38:28.577Z,5.00
2023-03-13T11:39:54.865Z,4.70
2023-03-13T11:41:45.871Z,5.03
2023-03-13T11:43:24.456Z,4.30
2023-03-13T11:44:27.834Z,4.72
2023-03-13T11:45:49.223Z,4.05
2023-03-13T11:46:58.129Z,4.25
2023-03-13T11:48:18.188Z,4.25
2023-03-13T11:49:23.487Z,3.70
2023-03-13T11:50:36.497Z,3.95
2023-03-13T11:51:49.439Z,3.95
2023-03-13T11:53:02.673Z,3.53
2023-03-13T11:54:32.962Z,4.13
2023-03-13T11:55:50.819Z,4.07
2023-03-13T11:56:56.896Z,4.30
2023-03-13T11:58:09.656Z,4.15
2023-03-13T11:59:33.987Z,5.00
2023-03-13T12:01:04.423Z,3.47
2023-03-13T12:02:21.730Z,3.47
2023-03-13T12:03:36.969Z,3.90
2023-03-13T12:04:49.829Z,3.83
2023-03-13T12:05:55.801Z,3.90
2023-03-13T12:07:28.595Z,3.70
2023-03-13T12:08:41.123Z,3.83
2023-03-13T12:09:54.466Z,3.55
2023-03-13T12:11:09.302Z,3.72
2023-03-13T12:12:38.916Z,3.58
2023-03-13T12:13:46.983Z,3.67
2023-03-13T12:15:31.198Z,3.95
2023-03-13T12:16:42.212Z,3.80
2023-03-13T12:18:03.115Z,3.75
2023-03-13T12:20:20.182Z,3.60
2023-03-13T12:21:29.857Z,4.15
2023-03-13T12:22:54.089Z,3.65
2023-03-13T12:24:16.851Z,4.30
2023-03-13T12:25:24.224Z,3.85
2023-03-13T12:26:35.190Z,4.03
2023-03-13T12:27:43.731Z,4.47
2023-03-13T12:29:03.362Z,3.10
2023-03-13T12:30:26.505Z,3.90
2023-03-13T12:31:34.351Z,3.17
2023-03-13T12:32:40.434Z,3.30
2023-03-13T12:33:45.151Z,4.10
2023-03-13T12:34:59.475Z,3.38
2023-03-13T12:36:13.115Z,3.90
2023-03-13T12:37:30.343Z,3.60
2023-03-13T12:38:52.698Z,3.53
2023-03-13T12:40:12.070Z,3.80
2023-03-13T12:41:20.046Z,4.85
2023-03-13T12:43:15.002Z,4.55
2023-03-13T12:44:20.858Z,3.83
2023-03-13T12:45:26.199Z,4.13
2023-03-13T12:46:54.152Z,3.85
2023-03-13T12:48:09.475Z,3.80
2023-03-13T12:49:30.221Z,3.60
2023-03-13T12:50:42.056Z,2.92
2023-03-13T12:51:57.651Z,3.72
2023-03-13T12:53:48.100Z,3.80
2023-03-13T12:54:56.916Z,3.50
2023-03-13T12:56:11.355Z,4.03
2023-03-13T12:57:46.920Z,3.78
2023-03-13T12:59:14.915Z,3.75
2023-03-13T13:00:24.140Z,3.38
2023-03-13T13:01:42.072Z,3.72
2023-03-13T13:02:44.992Z,3.58
2023-03-13T13:03:59.724Z,3.90
2023-03-13T13:05:02.696Z,3.72
2023-03-13T13:06:11.164Z,3.10
2023-03-13T13:07:34.470Z,3.78
2023-03-13T13:08:47.318Z,4.05
2023-03-13T13:10:10.993Z,3.17
2023-03-13T13:11:38.390Z,4.68
2023-03-13T13:13:01.803Z,3.55
2023-03-13T13:14:19.114Z,3.95
2023-03-13T13:15:29.267Z,3.50
2023-03-13T13:16:32.130Z,3.75
2023-03-13T13:17:41.008Z,3.90
2023-03-13T13:18:43.593Z,3.90
2023-03-13T13:19:47.505Z,3.72
2023-03-13T13:21:15.619Z,5.03
2023-03-13T13:22:39.045Z,3.50
2023-03-13T13:23:46.955Z,4.90
2023-03-13T13:24:51.460Z,4.93
2023-03-13T13:25:56.045Z,4.53
2023-03-13T13:26:58.583Z,3.97
2023-03-13T13:28:21.909Z,3.80
2023-03-13T13:29:25.393Z,4.28
2023-03-13T13:30:27.948Z,3.88
2023-03-13T13:32:00.194Z,3.58
2023-03-13T13:33:28.090Z,3.78
2023-03-13T13:34:36.249Z,4.05
2023-03-13T13:35:41.520Z,4.32
2023-03-13T13:36:44.371Z,3.78
2023-03-13T13:37:49.490Z,4.30
2023-03-13T13:38:52.554Z,3.90
2023-03-13T13:39:56.708Z,4.72
2023-03-13T13:41:10.262Z,4.40
2023-03-13T13:42:30.951Z,3.55
2023-03-13T13:43:41.884Z,4.65
2023-03-13T13:45:02.935Z,3.90
2023-03-13T13:47:24.337Z,4.57
2023-03-13T13:48:43.311Z,4.13
2023-03-13T13:49:54.506Z,3.67
2023-03-13T13:51:19.806Z,3.50
2023-03-13T13:52:38.721Z,3.67
2023-03-13T13:53:55.858Z,3.15
2023-03-13T13:54:58.821Z,4.00
2023-03-13T13:56:03.557Z,3.70
2023-03-13T13:57:33.119Z,3.35
2023-03-13T13:58:39.541Z,3.42
2023-03-13T13:59:50.664Z,4.03
2023-03-13T14:01:01.616Z,3.70
2023-03-13T14:02:04.223Z,3.67
2023-03-13T14:03:23.781Z,3.88
2023-03-13T14:04:34.267Z,3.30
2023-03-13T14:05:39.913Z,3.72
2023-03-13T14:06:45.909Z,3.90
2023-03-13T14:08:14.934Z,2.95
2023-03-13T14:09:40.439Z,3.22
2023-03-13T14:10:43.941Z,3.28
2023-03-13T14:11:46.647Z,3.45
2023-03-13T14:12:54.571Z,3.40
2023-03-13T14:14:15.295Z,3.08
2023-03-13T14:16:25.825Z,3.80
2023-03-13T14:17:28.868Z,4.15
2023-03-13T14:18:31.468Z,3.00
2023-03-13T14:19:51.965Z,3.05
2023-03-13T14:21:01.411Z,3.50
2023-03-13T14:22:10.181Z,4.10
2023-03-13T14:23:12.823Z,4.32
2023-03-13T14:24:16.247Z,4.05
2023-03-13T14:25:18.798Z,3.80
2023-03-13T14:26:25.163Z,3.88
2023-03-13T14:27:27.726Z,3.25
2023-03-13T14:28:30.601Z,4.93
2023-03-13T14:29:33.182Z,4.25
2023-03-13T14:30:43.387Z,4.78
2023-03-13T14:31:53.407Z,4.15
2023-03-13T14:32:56.284Z,3.70
2023-03-13T14:34:01.070Z,3.40
2023-03-13T14:35:08.770Z,3.97
2023-03-13T14:36:12.436Z,4.07
2023-03-13T14:37:35.592Z,4.38
2023-03-13T14:38:38.397Z,5.03
2023-03-13T14:39:45.551Z,4.80
2023-03-13T14:40:48.230Z,4.35
2023-03-13T14:41:50.970Z,4.10
2023-03-13T14:42:56.631Z,4.32
2023-03-13T14:44:10.526Z,3.80
2023-03-13T14:45:15.060Z,4.70
2023-03-13T14:46:41.100Z,4.32
2023-03-13T14:47:44.673Z,3.17
2023-03-13T14:48:47.337Z,4.13
2023-03-13T14:49:59.397Z,4.05
2023-03-13T14:51:15.096Z,4.63
2023-03-13T14:52:24.941Z,3.70
2023-03-13T14:53:28.137Z,3.08
2023-03-13T14:54:36.185Z,4.05
2023-03-13T14:55:41.158Z,2.92
2023-03-13T14:56:45.230Z,3.38
2023-03-13T14:58:05.145Z,3.30
2023-03-13T14:59:24.630Z,3.20
2023-03-13T15:00:31.816Z,3.42
2023-03-13T15:01:34.645Z,3.42
2023-03-13T15:02:38.737Z,2.88
2023-03-13T15:03:46.164Z,2.88
2023-03-13T15:04:59.687Z,2.83
2023-03-13T15:06:25.611Z,2.75
2023-03-13T15:07:41.501Z,2.80
2023-03-13T15:08:46.470Z,2.95
2023-03-13T15:09:49.601Z,3.03
2023-03-13T15:10:52.195Z,3.45
2023-03-13T15:11:59.694Z,3.30
2023-03-13T15:13:20.194Z,3.10
2023-03-13T15:14:35.436Z,2.97
2023-03-13T15:15:37.947Z,3.10
2023-03-13T15:16:40.523Z,2.88
2023-03-13T15:17:43.413Z,3.00
2023-03-13T15:18:49.410Z,2.72
2023-03-13T15:19:54.215Z,3.67
2023-03-13T15:21:12.979Z,5.22
2023-03-13T15:22:17.543Z,3.63
2023-03-13T15:23:22.650Z,3.58